createdAt,value
2016-05-05T00:00:43.289Z,0
2016-05-05T00:01:43.214Z,0
2016-05-05T00:02:43.092Z,0
2016-05-05T00:03:43.109Z,0
2016-05-05T00:04:43.253Z,0
2016-05-05T00:05:43.271Z,0
2016-05-05T00:06:43.258Z,0
2016-05-05T00:07:43.277Z,0
2016-05-05T00:08:43.138Z,0
2016-05-05T00:09:44.626Z,0
2016-05-05T00:10:43.300Z,0
2016-05-05T00:11:43.288Z,0
2016-05-05T00:12:43.149Z,0
2016-05-05T00:13:43.168Z,0
2016-05-05T00:14:43.171Z,0
2016-05-05T00:15:43.344Z,0
2016-05-05T00:16:43.332Z,0
2016-05-05T00:17:43.365Z,0
2016-05-05T00:18:43.353Z,0
2016-05-05T00:19:43.199Z,0
2016-05-05T00:20:43.390Z,0
2016-05-05T00:21:43.361Z,0
2016-05-05T00:22:43.395Z,0
2016-05-05T00:23:43.382Z,0
2016-05-05T00:24:43.088Z,0
2016-05-05T00:25:43.387Z,0
2016-05-05T00:26:43.265Z,0
2016-05-05T00:27:43.393Z,0
2016-05-05T00:28:43.411Z,0
2016-05-05T00:29:43.445Z,0
2016-05-05T00:30:43.447Z,0
2016-05-05T00:31:43.435Z,0
2016-05-05T00:32:43.437Z,0
2016-05-05T00:33:43.455Z,0
2016-05-05T00:34:43.475Z,0
2016-05-05T00:35:43.445Z,0
2016-05-05T00:36:43.480Z,0
2016-05-05T00:37:43.467Z,0
2016-05-05T00:38:43.500Z,0
2016-05-05T00:39:44.081Z,0
2016-05-05T00:40:43.521Z,0
2016-05-05T00:41:43.524Z,0
2016-05-05T00:42:43.511Z,0
2016-05-05T00:43:43.358Z,0
2016-05-05T00:44:43.391Z,0
2016-05-05T00:45:43.519Z,0
2016-05-05T00:46:43.365Z,0
2016-05-05T00:47:43.541Z,0
2016-05-05T00:48:43.402Z,0
2016-05-05T00:49:43.561Z,0
2016-05-05T00:50:43.563Z,0
2016-05-05T00:51:43.567Z,0
2016-05-05T00:52:43.429Z,0
2016-05-05T00:53:43.572Z,0
2016-05-05T00:54:43.465Z,0
2016-05-05T00:55:43.577Z,0
2016-05-05T00:56:43.627Z,0
2016-05-05T00:57:43.443Z,0
2016-05-05T00:58:43.618Z,0
2016-05-05T00:59:43.620Z,0
2016-05-05T01:00:43.450Z,0
2016-05-05T01:01:43.625Z,0
2016-05-05T01:02:43.675Z,0
2016-05-05T01:03:43.505Z,0
2016-05-05T01:04:43.648Z,0
2016-05-05T01:05:43.667Z,0
2016-05-05T01:06:43.654Z,0
2016-05-05T01:07:43.719Z,0
2016-05-05T01:08:44.034Z,0
2016-05-05T01:09:43.552Z,0
2016-05-05T01:10:43.539Z,0
2016-05-05T01:11:43.527Z,0
2016-05-05T01:12:43.576Z,0
2016-05-05T01:13:43.704Z,0
2016-05-05T01:14:43.582Z,0
2016-05-05T01:15:43.553Z,0
2016-05-05T01:16:43.713Z,0
2016-05-05T01:17:43.746Z,0
2016-05-05T01:18:43.796Z,0
2016-05-05T01:19:44.016Z,0
2016-05-05T01:20:43.754Z,0
2016-05-05T01:21:43.866Z,0
2016-05-05T01:22:43.760Z,0
2016-05-05T01:23:43.793Z,0
2016-05-05T01:24:43.937Z,0
2016-05-05T01:25:44.096Z,0
2016-05-05T01:26:43.646Z,0
2016-05-05T01:27:43.663Z,0
2016-05-05T01:28:44.463Z,0
2016-05-05T01:29:43.825Z,0
2016-05-05T01:30:43.546Z,0
2016-05-05T01:31:43.831Z,0
2016-05-05T01:32:43.849Z,0
2016-05-05T01:33:44.148Z,0
2016-05-05T01:34:43.839Z,0
2016-05-05T01:35:43.873Z,0
2016-05-05T01:36:43.876Z,0
2016-05-05T01:37:43.690Z,0
2016-05-05T01:38:43.865Z,0
2016-05-05T01:39:43.899Z,0
2016-05-05T01:40:44.011Z,0
2016-05-05T01:41:43.905Z,0
2016-05-05T01:42:44.158Z,0
2016-05-05T01:43:43.769Z,0
2016-05-05T01:44:44.100Z,0
2016-05-05T01:45:43.791Z,0
2016-05-05T01:46:43.933Z,0
2016-05-05T01:47:43.998Z,0
2016-05-05T01:48:44.251Z,0
2016-05-05T01:49:44.051Z,0
2016-05-05T01:50:43.960Z,0
2016-05-05T01:51:43.963Z,0
2016-05-05T01:52:44.001Z,0
2016-05-05T01:53:43.937Z,0
2016-05-05T01:54:44.874Z,0
2016-05-05T01:55:44.387Z,0
2016-05-05T01:56:44.214Z,0
2016-05-05T01:57:44.074Z,0
2016-05-05T01:58:44.404Z,0
2016-05-05T01:59:44.250Z,0
2016-05-05T02:00:44.143Z,0
2016-05-05T02:01:44.303Z,0
2016-05-05T02:02:44.629Z,0
2016-05-05T02:03:44.606Z,0
2016-05-05T02:04:44.379Z,0
2016-05-05T02:05:44.061Z,0
2016-05-05T02:06:44.381Z,0
2016-05-05T02:07:44.372Z,0
2016-05-05T02:08:44.611Z,0
2016-05-05T02:09:44.147Z,0
2016-05-05T02:10:44.276Z,0
2016-05-05T02:11:44.608Z,0
2016-05-05T02:12:44.457Z,0
2016-05-05T02:13:44.383Z,0
2016-05-05T02:14:44.432Z,0
2016-05-05T02:15:44.562Z,0
2016-05-05T02:16:44.283Z,0
2016-05-05T02:17:44.287Z,0
2016-05-05T02:18:44.524Z,0
2016-05-05T02:19:44.324Z,0
2016-05-05T02:20:44.483Z,0
2016-05-05T02:21:44.486Z,0
2016-05-05T02:22:44.678Z,0
2016-05-05T02:23:44.619Z,0
2016-05-05T02:24:44.559Z,0
2016-05-05T02:25:44.734Z,0
2016-05-05T02:26:44.517Z,0
2016-05-05T02:27:44.551Z,0
2016-05-05T02:28:44.695Z,0
2016-05-05T02:29:44.557Z,0
2016-05-05T02:30:44.544Z,0
2016-05-05T02:31:44.500Z,0
2016-05-05T02:32:44.565Z,0
2016-05-05T02:33:44.661Z,0
2016-05-05T02:34:44.414Z,0
2016-05-05T02:35:44.432Z,0
2016-05-05T02:36:44.700Z,0
2016-05-05T02:37:44.437Z,0
2016-05-05T02:38:44.894Z,0
2016-05-05T02:39:45.881Z,0
2016-05-05T02:40:44.728Z,0
2016-05-05T02:41:44.620Z,0
2016-05-05T02:42:44.655Z,0
2016-05-05T02:43:44.875Z,0
2016-05-05T02:44:44.645Z,0
2016-05-05T02:45:44.631Z,0
2016-05-05T02:46:44.680Z,0
2016-05-05T02:47:44.652Z,0
2016-05-05T02:48:44.514Z,0
2016-05-05T02:49:44.829Z,0
2016-05-05T02:50:44.520Z,0
2016-05-05T02:51:44.522Z,0
2016-05-05T02:52:44.853Z,0
2016-05-05T02:53:44.855Z,0
2016-05-05T02:54:44.702Z,0
2016-05-05T02:55:45.002Z,0
2016-05-05T02:56:44.739Z,0
2016-05-05T02:57:44.710Z,0
2016-05-05T02:58:45.041Z,0
2016-05-05T02:59:44.747Z,0
2016-05-05T03:00:44.750Z,0
2016-05-05T03:01:44.893Z,0
2016-05-05T03:02:44.771Z,0
2016-05-05T03:03:44.601Z,0
2016-05-05T03:04:44.792Z,0
2016-05-05T03:05:44.779Z,0
2016-05-05T03:06:44.781Z,0
2016-05-05T03:07:44.800Z,0
2016-05-05T03:08:44.787Z,0
2016-05-05T03:09:44.884Z,0
2016-05-05T03:10:45.089Z,0
2016-05-05T03:11:44.810Z,0
2016-05-05T03:12:44.813Z,0
2016-05-05T03:13:44.831Z,0
2016-05-05T03:14:44.819Z,0
2016-05-05T03:15:44.743Z,0
2016-05-05T03:16:44.527Z,0
2016-05-05T03:17:44.858Z,0
2016-05-05T03:18:45.127Z,0
2016-05-05T03:19:44.848Z,0
2016-05-05T03:20:44.882Z,0
2016-05-05T03:21:44.868Z,0
2016-05-05T03:22:45.152Z,0
2016-05-05T03:23:44.890Z,0
2016-05-05T03:24:45.205Z,0
2016-05-05T03:25:44.755Z,0
2016-05-05T03:26:44.929Z,0
2016-05-05T03:27:44.947Z,0
2016-05-05T03:28:44.762Z,0
2016-05-05T03:29:44.938Z,0
2016-05-05T03:30:44.768Z,0
2016-05-05T03:31:44.973Z,0
2016-05-05T03:32:45.085Z,0
2016-05-05T03:33:44.807Z,0
2016-05-05T03:34:45.170Z,0
2016-05-05T03:35:44.829Z,0
2016-05-05T03:36:44.800Z,0
2016-05-05T03:37:45.053Z,0
2016-05-05T03:38:44.977Z,0
2016-05-05T03:39:46.292Z,0
2016-05-05T03:40:44.873Z,4
2016-05-05T03:41:45.000Z,4
2016-05-05T03:42:44.847Z,4
2016-05-05T03:43:45.037Z,4
2016-05-05T03:44:45.025Z,0
2016-05-05T03:45:45.042Z,4
2016-05-05T03:46:45.123Z,4
2016-05-05T03:47:45.158Z,4
2016-05-05T03:48:45.036Z,4
2016-05-05T03:49:45.053Z,8
2016-05-05T03:50:45.071Z,8
2016-05-05T03:51:45.090Z,4
2016-05-05T03:52:45.077Z,4
2016-05-05T03:53:45.095Z,8
2016-05-05T03:54:44.957Z,8
2016-05-05T03:55:45.147Z,12
2016-05-05T03:56:45.104Z,8
2016-05-05T03:57:45.107Z,8
2016-05-05T03:58:45.124Z,12
2016-05-05T03:59:45.112Z,12
2016-05-05T04:00:45.129Z,16
2016-05-05T04:01:45.148Z,12
2016-05-05T04:02:45.151Z,16
2016-05-05T04:03:45.122Z,16
2016-05-05T04:04:45.171Z,16
2016-05-05T04:05:45.159Z,20
2016-05-05T04:06:45.177Z,16
2016-05-05T04:07:45.009Z,20
2016-05-05T04:08:44.714Z,20
2016-05-05T04:09:45.045Z,20
2016-05-05T04:10:45.062Z,28
2016-05-05T04:11:45.222Z,24
2016-05-05T04:12:45.193Z,28
2016-05-05T04:13:45.228Z,28
2016-05-05T04:14:45.214Z,32
2016-05-05T04:15:45.061Z,32
2016-05-05T04:16:45.236Z,32
2016-05-05T04:17:45.254Z,40
2016-05-05T04:18:45.256Z,40
2016-05-05T04:19:45.228Z,44
2016-05-05T04:20:45.277Z,44
2016-05-05T04:21:45.233Z,44
2016-05-05T04:22:45.283Z,48
2016-05-05T04:23:45.269Z,52
2016-05-05T04:24:45.304Z,56
2016-05-05T04:25:45.291Z,60
2016-05-05T04:26:45.325Z,60
2016-05-05T04:27:45.297Z,64
2016-05-05T04:28:45.299Z,68
2016-05-05T04:29:45.161Z,68
2016-05-05T04:30:45.320Z,76
2016-05-05T04:31:45.338Z,84
2016-05-05T04:32:45.326Z,88
2016-05-05T04:33:45.359Z,88
2016-05-05T04:34:45.346Z,88
2016-05-05T04:35:45.176Z,88
2016-05-05T04:36:45.368Z,96
2016-05-05T04:37:45.354Z,104
2016-05-05T04:38:45.388Z,108
2016-05-05T04:39:45.220Z,108
2016-05-05T04:40:45.409Z,112
2016-05-05T04:41:45.256Z,112
2016-05-05T04:42:45.415Z,116
2016-05-05T04:43:45.245Z,120
2016-05-05T04:44:45.404Z,124
2016-05-05T04:45:45.407Z,128
2016-05-05T04:46:45.426Z,132
2016-05-05T04:47:45.287Z,128
2016-05-05T04:48:45.274Z,124
2016-05-05T04:49:45.293Z,124
2016-05-05T04:50:45.452Z,132
2016-05-05T04:51:45.455Z,144
2016-05-05T04:52:45.300Z,140
2016-05-05T04:53:45.320Z,136
2016-05-05T04:54:46.728Z,136
2016-05-05T04:55:45.496Z,144
2016-05-05T04:56:45.469Z,152
2016-05-05T04:57:45.471Z,140
2016-05-05T04:58:45.488Z,140
2016-05-05T04:59:45.508Z,140
2016-05-05T05:00:45.494Z,132
2016-05-05T05:01:45.529Z,124
2016-05-05T05:02:45.391Z,124
2016-05-05T05:03:45.549Z,128
2016-05-05T05:04:45.520Z,128
2016-05-05T05:05:45.398Z,132
2016-05-05T05:06:45.386Z,136
2016-05-05T05:07:45.560Z,140
2016-05-05T05:08:45.594Z,136
2016-05-05T05:09:45.487Z,144
2016-05-05T05:10:45.568Z,144
2016-05-05T05:11:45.601Z,136
2016-05-05T05:12:45.418Z,140
2016-05-05T05:13:45.607Z,128
2016-05-05T05:14:45.595Z,124
2016-05-05T05:15:45.613Z,112
2016-05-05T05:16:45.631Z,124
2016-05-05T05:17:45.617Z,140
2016-05-05T05:18:45.620Z,144
2016-05-05T05:19:45.623Z,148
2016-05-05T05:20:45.486Z,148
2016-05-05T05:21:45.473Z,148
2016-05-05T05:22:45.663Z,152
2016-05-05T05:23:45.650Z,148
2016-05-05T05:24:45.700Z,152
2016-05-05T05:25:45.686Z,152
2016-05-05T05:26:45.689Z,152
2016-05-05T05:27:45.535Z,156
2016-05-05T05:28:45.679Z,152
2016-05-05T05:29:45.432Z,156
2016-05-05T05:30:45.544Z,156
2016-05-05T05:31:45.718Z,160
2016-05-05T05:32:45.737Z,156
2016-05-05T05:33:45.724Z,160
2016-05-05T05:34:45.726Z,160
2016-05-05T05:35:45.713Z,160
2016-05-05T05:36:45.591Z,160
2016-05-05T05:37:45.734Z,156
2016-05-05T05:38:45.753Z,164
2016-05-05T05:39:46.443Z,160
2016-05-05T05:40:45.774Z,160
2016-05-05T05:41:45.651Z,164
2016-05-05T05:42:45.639Z,164
2016-05-05T05:43:45.797Z,164
2016-05-05T05:44:45.800Z,164
2016-05-05T05:45:45.818Z,164
2016-05-05T05:46:45.650Z,164
2016-05-05T05:47:45.667Z,168
2016-05-05T05:48:45.842Z,168
2016-05-05T05:49:45.814Z,168
2016-05-05T05:50:45.675Z,168
2016-05-05T05:51:45.850Z,168
2016-05-05T05:52:45.853Z,168
2016-05-05T05:53:45.855Z,172
2016-05-05T05:54:45.858Z,168
2016-05-05T05:55:45.877Z,172
2016-05-05T05:56:45.707Z,168
2016-05-05T05:57:45.882Z,172
2016-05-05T05:58:45.885Z,176
2016-05-05T05:59:45.903Z,176
2016-05-05T06:00:45.733Z,180
2016-05-05T06:01:45.768Z,176
2016-05-05T06:02:45.910Z,180
2016-05-05T06:03:45.773Z,180
2016-05-05T06:04:45.932Z,180
2016-05-05T06:05:45.935Z,184
2016-05-05T06:06:45.938Z,180
2016-05-05T06:07:45.956Z,184
2016-05-05T06:08:45.973Z,184
2016-05-05T06:09:46.179Z,180
2016-05-05T06:10:45.824Z,184
2016-05-05T06:11:45.498Z,184
2016-05-05T06:12:45.984Z,184
2016-05-05T06:13:45.972Z,184
2016-05-05T06:14:45.990Z,188
2016-05-05T06:15:45.977Z,184
2016-05-05T06:16:46.011Z,184
2016-05-05T06:17:45.998Z,188
2016-05-05T06:18:45.860Z,188
2016-05-05T06:19:45.878Z,192
2016-05-05T06:20:46.037Z,188
2016-05-05T06:21:46.040Z,192
2016-05-05T06:22:46.074Z,192
2016-05-05T06:23:46.040Z,192
2016-05-05T06:24:46.105Z,192
2016-05-05T06:25:46.076Z,196
2016-05-05T06:26:45.924Z,200
2016-05-05T06:27:46.051Z,196
2016-05-05T06:28:45.928Z,200
2016-05-05T06:29:46.071Z,200
2016-05-05T06:30:45.949Z,200
2016-05-05T06:31:45.921Z,204
2016-05-05T06:32:45.955Z,208
2016-05-05T06:33:45.957Z,204
2016-05-05T06:34:46.116Z,208
2016-05-05T06:35:46.103Z,208
2016-05-05T06:36:46.121Z,208
2016-05-05T06:37:46.140Z,208
2016-05-05T06:38:46.142Z,208
2016-05-05T06:39:47.036Z,212
2016-05-05T06:40:46.148Z,212
2016-05-05T06:41:46.150Z,208
2016-05-05T06:42:46.170Z,212
2016-05-05T06:43:46.172Z,212
2016-05-05T06:44:46.190Z,212
2016-05-05T06:45:46.192Z,212
2016-05-05T06:46:46.211Z,212
2016-05-05T06:47:46.198Z,212
2016-05-05T06:48:46.232Z,216
2016-05-05T06:49:46.219Z,212
2016-05-05T06:50:46.222Z,216
2016-05-05T06:51:46.208Z,212
2016-05-05T06:52:46.227Z,216
2016-05-05T06:53:46.261Z,212
2016-05-05T06:54:47.874Z,212
2016-05-05T06:55:46.251Z,216
2016-05-05T06:56:46.269Z,216
2016-05-05T06:57:46.272Z,220
2016-05-05T06:58:46.274Z,216
2016-05-05T06:59:46.293Z,216
2016-05-05T07:00:46.279Z,216
2016-05-05T07:01:46.299Z,216
2016-05-05T07:02:46.285Z,216
2016-05-05T07:03:46.335Z,220
2016-05-05T07:04:46.307Z,220
2016-05-05T07:05:46.310Z,220
2016-05-05T07:06:46.312Z,224
2016-05-05T07:07:46.346Z,224
2016-05-05T07:08:46.332Z,228
2016-05-05T07:09:46.210Z,228
2016-05-05T07:10:46.370Z,232
2016-05-05T07:11:46.387Z,232
2016-05-05T07:12:46.359Z,236
2016-05-05T07:13:46.362Z,236
2016-05-05T07:14:46.365Z,120
2016-05-05T07:15:46.398Z,244
2016-05-05T07:16:46.385Z,252
2016-05-05T07:17:46.404Z,256
2016-05-05T07:18:46.391Z,268
2016-05-05T07:19:46.441Z,288
2016-05-05T07:20:46.396Z,284
2016-05-05T07:21:46.274Z,276
2016-05-05T07:22:46.292Z,296
2016-05-05T07:23:46.263Z,272
2016-05-05T07:24:46.657Z,272
2016-05-05T07:25:46.300Z,272
2016-05-05T07:26:46.288Z,264
2016-05-05T07:27:46.462Z,264
2016-05-05T07:28:46.449Z,320
2016-05-05T07:29:46.483Z,236
2016-05-05T07:30:46.314Z,224
2016-05-05T07:31:46.176Z,280
2016-05-05T07:32:46.491Z,312
2016-05-05T07:33:46.510Z,244
2016-05-05T07:34:46.512Z,312
2016-05-05T07:35:46.359Z,316
2016-05-05T07:36:46.377Z,320
2016-05-05T07:37:46.551Z,280
2016-05-05T07:38:46.382Z,328
2016-05-05T07:39:47.431Z,184
2016-05-05T07:40:46.232Z,316
2016-05-05T07:41:46.562Z,312
2016-05-05T07:42:46.408Z,268
2016-05-05T07:43:46.568Z,184
2016-05-05T07:44:46.570Z,192
2016-05-05T07:45:46.589Z,368
2016-05-05T07:46:46.575Z,168
2016-05-05T07:47:46.609Z,208
2016-05-05T07:48:46.597Z,340
2016-05-05T07:49:46.614Z,268
2016-05-05T07:50:46.603Z,424
2016-05-05T07:51:46.636Z,404
2016-05-05T07:52:46.608Z,376
2016-05-05T07:53:46.469Z,340
2016-05-05T07:54:46.503Z,384
2016-05-05T07:55:46.646Z,392
2016-05-05T07:56:46.508Z,376
2016-05-05T07:57:46.652Z,384
2016-05-05T07:58:46.514Z,372
2016-05-05T07:59:46.689Z,368
2016-05-05T08:00:46.676Z,360
2016-05-05T08:01:46.694Z,404
2016-05-05T08:02:46.540Z,252
2016-05-05T08:03:46.559Z,416
2016-05-05T08:04:46.702Z,416
2016-05-05T08:05:46.565Z,212
2016-05-05T08:06:46.708Z,384
2016-05-05T08:07:46.741Z,296
2016-05-05T08:08:46.728Z,288
2016-05-05T08:09:47.169Z,384
2016-05-05T08:10:46.734Z,392
2016-05-05T08:11:46.784Z,384
2016-05-05T08:12:46.770Z,388
2016-05-05T08:13:46.757Z,216
2016-05-05T08:14:46.760Z,320
2016-05-05T08:15:46.623Z,268
2016-05-05T08:16:46.797Z,448
2016-05-05T08:17:46.627Z,420
2016-05-05T08:18:46.818Z,464
2016-05-05T08:19:46.805Z,468
2016-05-05T08:20:46.808Z,476
2016-05-05T08:21:46.842Z,468
2016-05-05T08:22:46.689Z,412
2016-05-05T08:23:46.816Z,240
2016-05-05T08:24:46.881Z,280
2016-05-05T08:25:46.852Z,424
2016-05-05T08:26:46.855Z,240
2016-05-05T08:27:46.874Z,428
2016-05-05T08:28:46.892Z,412
2016-05-05T08:29:46.879Z,424
2016-05-05T08:30:46.772Z,424
2016-05-05T08:31:46.885Z,424
2016-05-05T08:32:46.887Z,428
2016-05-05T08:33:46.890Z,420
2016-05-05T08:34:46.939Z,412
2016-05-05T08:35:46.926Z,412
2016-05-05T08:36:46.929Z,424
2016-05-05T08:37:46.463Z,448
2016-05-05T08:38:46.934Z,464
2016-05-05T08:39:46.952Z,484
2016-05-05T08:40:46.970Z,452
2016-05-05T08:41:46.786Z,436
2016-05-05T08:42:46.976Z,428
2016-05-05T08:43:46.979Z,432
2016-05-05T08:44:46.965Z,432
2016-05-05T08:45:47.001Z,432
2016-05-05T08:46:47.003Z,436
2016-05-05T08:47:46.848Z,444
2016-05-05T08:48:47.008Z,460
2016-05-05T08:49:46.886Z,484
2016-05-05T08:50:46.873Z,248
2016-05-05T08:51:47.031Z,500
2016-05-05T08:52:47.050Z,476
2016-05-05T08:53:47.022Z,480
2016-05-05T08:54:46.899Z,488
2016-05-05T08:55:47.042Z,480
2016-05-05T08:56:47.077Z,436
2016-05-05T08:57:46.908Z,304
2016-05-05T08:58:47.082Z,284
2016-05-05T08:59:46.927Z,296
2016-05-05T09:00:46.916Z,516
2016-05-05T09:01:47.106Z,620
2016-05-05T09:02:47.123Z,512
2016-05-05T09:03:47.111Z,376
2016-05-05T09:04:46.973Z,296
2016-05-05T09:05:46.991Z,572
2016-05-05T09:06:47.149Z,584
2016-05-05T09:07:46.981Z,584
2016-05-05T09:08:47.155Z,576
2016-05-05T09:09:47.174Z,608
2016-05-05T09:10:47.160Z,684
2016-05-05T09:11:47.163Z,720
2016-05-05T09:12:47.182Z,704
2016-05-05T09:13:47.185Z,572
2016-05-05T09:14:47.218Z,496
2016-05-05T09:15:47.034Z,600
2016-05-05T09:16:47.209Z,416
2016-05-05T09:17:47.087Z,376
2016-05-05T09:18:46.916Z,512
2016-05-05T09:19:47.217Z,716
2016-05-05T09:20:47.094Z,684
2016-05-05T09:21:47.097Z,724
2016-05-05T09:22:47.272Z,708
2016-05-05T09:23:47.242Z,716
2016-05-05T09:24:47.152Z,660
2016-05-05T09:25:47.279Z,664
2016-05-05T09:26:47.267Z,544
2016-05-05T09:27:47.113Z,388
2016-05-05T09:28:47.147Z,408
2016-05-05T09:29:47.261Z,600
2016-05-05T09:30:47.154Z,676
2016-05-05T09:31:47.301Z,372
2016-05-05T09:32:48.578Z,500
2016-05-05T09:33:47.325Z,756
2016-05-05T09:34:47.327Z,712
2016-05-05T09:35:47.346Z,444
2016-05-05T09:36:47.333Z,636
2016-05-05T09:37:47.366Z,376
2016-05-05T09:38:47.353Z,372
2016-05-05T09:39:47.263Z,524
2016-05-05T09:40:47.359Z,712
2016-05-05T09:41:47.393Z,384
2016-05-05T09:42:47.406Z,464
2016-05-05T09:43:47.377Z,400
2016-05-05T09:44:47.270Z,380
2016-05-05T09:45:47.256Z,660
2016-05-05T09:46:47.432Z,372
2016-05-05T09:47:49.669Z,436
2016-05-05T09:48:47.422Z,572
2016-05-05T09:49:47.440Z,776
2016-05-05T09:50:47.286Z,428
2016-05-05T09:51:47.461Z,464
2016-05-05T09:52:47.448Z,668
2016-05-05T09:53:47.466Z,688
2016-05-05T09:54:47.484Z,684
2016-05-05T09:55:47.487Z,688
2016-05-05T09:56:47.474Z,780
2016-05-05T09:57:47.508Z,672
2016-05-05T09:58:47.495Z,632
2016-05-05T09:59:47.357Z,628
2016-05-05T10:00:47.500Z,728
2016-05-05T10:01:47.378Z,524
2016-05-05T10:02:47.505Z,476
2016-05-05T10:03:47.540Z,416
2016-05-05T10:04:47.542Z,384
2016-05-05T10:05:47.388Z,352
2016-05-05T10:06:47.251Z,360
2016-05-05T10:07:47.566Z,412
2016-05-05T10:08:47.568Z,480
2016-05-05T10:09:48.071Z,520
2016-05-05T10:10:47.277Z,532
2016-05-05T10:11:47.451Z,484
2016-05-05T10:12:47.612Z,784
2016-05-05T10:13:47.614Z,768
2016-05-05T10:14:47.600Z,672
2016-05-05T10:15:47.620Z,632
2016-05-05T10:16:47.622Z,612
2016-05-05T10:17:47.624Z,524
2016-05-05T10:18:47.643Z,532
2016-05-05T10:19:47.661Z,528
2016-05-05T10:20:47.663Z,560
2016-05-05T10:21:47.495Z,568
2016-05-05T10:22:47.684Z,560
2016-05-05T10:23:47.656Z,608
2016-05-05T10:24:48.033Z,600
2016-05-05T10:25:47.708Z,572
2016-05-05T10:26:47.727Z,568
2016-05-05T10:27:48.230Z,600
2016-05-05T10:28:47.716Z,776
2016-05-05T10:29:47.703Z,576
2016-05-05T10:30:47.752Z,636
2016-05-05T10:31:47.724Z,748
2016-05-05T10:32:47.744Z,544
2016-05-05T10:33:47.761Z,460
2016-05-05T10:34:47.764Z,424
2016-05-05T10:35:47.626Z,416
2016-05-05T10:36:47.785Z,448
2016-05-05T10:37:47.772Z,472
2016-05-05T10:38:47.806Z,508
2016-05-05T10:39:49.277Z,536
2016-05-05T10:40:47.654Z,508
2016-05-05T10:41:47.657Z,396
2016-05-05T10:42:47.832Z,340
2016-05-05T10:43:47.820Z,404
2016-05-05T10:44:47.837Z,372
2016-05-05T10:45:47.840Z,348
2016-05-05T10:46:47.843Z,372
2016-05-05T10:47:47.549Z,412
2016-05-05T10:48:47.864Z,380
2016-05-05T10:49:47.711Z,396
2016-05-05T10:50:47.884Z,428
2016-05-05T10:51:47.872Z,360
2016-05-05T10:52:47.875Z,448
2016-05-05T10:53:47.908Z,540
2016-05-05T10:54:48.567Z,900
2016-05-05T10:55:47.930Z,560
2016-05-05T10:56:49.636Z,432
2016-05-05T10:57:47.794Z,408
2016-05-05T10:58:47.985Z,520
2016-05-05T10:59:47.844Z,636
2016-05-05T11:00:48.077Z,624
2016-05-05T11:01:48.265Z,644
2016-05-05T11:02:48.858Z,600
2016-05-05T11:03:48.040Z,552
2016-05-05T11:04:48.231Z,720
2016-05-05T11:05:48.093Z,504
2016-05-05T11:06:48.112Z,528
2016-05-05T11:07:48.270Z,572
2016-05-05T11:08:48.298Z,608
2016-05-05T11:09:48.181Z,672
2016-05-05T11:10:48.345Z,704
2016-05-05T11:11:48.400Z,704
2016-05-05T11:12:48.377Z,696
2016-05-05T11:13:48.366Z,624
2016-05-05T11:14:48.371Z,640
2016-05-05T11:15:48.406Z,852
2016-05-05T11:16:48.396Z,552
2016-05-05T11:17:48.431Z,516
2016-05-05T11:18:48.420Z,452
2016-05-05T11:19:48.455Z,440
2016-05-05T11:20:48.270Z,676
2016-05-05T11:21:48.477Z,664
2016-05-05T11:22:48.496Z,832
2016-05-05T11:23:48.465Z,812
2016-05-05T11:24:48.640Z,608
2016-05-05T11:25:48.471Z,744
2016-05-05T11:26:48.489Z,564
2016-05-05T11:27:48.336Z,900
2016-05-05T11:28:48.355Z,928
2016-05-05T11:29:48.342Z,596
2016-05-05T11:30:48.500Z,544
2016-05-05T11:31:48.536Z,524
2016-05-05T11:32:48.382Z,612
2016-05-05T11:33:48.556Z,732
2016-05-05T11:34:48.543Z,696
2016-05-05T11:35:48.561Z,644
2016-05-05T11:36:48.564Z,648
2016-05-05T11:37:48.551Z,956
2016-05-05T11:38:48.569Z,740
2016-05-05T11:39:48.620Z,564
2016-05-05T11:40:48.591Z,692
2016-05-05T11:41:48.610Z,804
2016-05-05T11:42:48.612Z,952
2016-05-05T11:43:48.630Z,1004
2016-05-05T11:44:48.632Z,860
2016-05-05T11:45:48.480Z,1060
2016-05-05T11:46:48.654Z,920
2016-05-05T11:47:48.485Z,1008
2016-05-05T11:48:48.674Z,1028
2016-05-05T11:49:48.662Z,624
2016-05-05T11:50:48.509Z,980
2016-05-05T11:51:48.682Z,780
2016-05-05T11:52:48.685Z,764
2016-05-05T11:53:48.673Z,776
2016-05-05T11:54:48.988Z,568
2016-05-05T11:55:48.726Z,744
2016-05-05T11:56:48.415Z,584
2016-05-05T11:57:48.731Z,728
2016-05-05T11:58:48.733Z,552
2016-05-05T11:59:48.595Z,524
2016-05-05T12:00:48.753Z,972
2016-05-05T12:01:48.772Z,636
2016-05-05T12:02:48.775Z,616
2016-05-05T12:03:48.637Z,964
2016-05-05T12:04:48.781Z,656
2016-05-05T12:05:48.627Z,756
2016-05-05T12:06:48.802Z,828
2016-05-05T12:07:48.647Z,888
2016-05-05T12:08:48.682Z,880
2016-05-05T12:09:48.716Z,604
2016-05-05T12:10:48.844Z,832
2016-05-05T12:11:48.658Z,812
2016-05-05T12:12:48.833Z,776
2016-05-05T12:13:48.851Z,364
2016-05-05T12:14:48.869Z,712
2016-05-05T12:15:48.700Z,608
2016-05-05T12:16:48.891Z,672
2016-05-05T12:17:48.878Z,656
2016-05-05T12:18:48.755Z,676
2016-05-05T12:19:48.899Z,704
2016-05-05T12:20:48.917Z,592
2016-05-05T12:21:48.904Z,764
2016-05-05T12:22:48.937Z,628
2016-05-05T12:23:48.784Z,744
2016-05-05T12:24:50.491Z,464
2016-05-05T12:25:48.962Z,956
2016-05-05T12:26:48.652Z,856
2016-05-05T12:27:48.951Z,564
2016-05-05T12:28:48.986Z,496
2016-05-05T12:29:48.972Z,792
2016-05-05T12:30:48.820Z,420
2016-05-05T12:31:48.978Z,516
2016-05-05T12:32:48.839Z,632
2016-05-05T12:33:49.030Z,620
2016-05-05T12:34:48.877Z,960
2016-05-05T12:35:49.004Z,632
2016-05-05T12:36:49.038Z,612
2016-05-05T12:37:48.885Z,900
2016-05-05T12:38:49.059Z,868
2016-05-05T12:39:49.421Z,868
2016-05-05T12:40:49.080Z,864
2016-05-05T12:41:49.083Z,800
2016-05-05T12:42:48.913Z,780
2016-05-05T12:43:48.947Z,796
2016-05-05T12:44:49.122Z,600
2016-05-05T12:45:49.157Z,696
2016-05-05T12:46:49.112Z,676
2016-05-05T12:47:49.115Z,592
2016-05-05T12:48:48.977Z,452
2016-05-05T12:49:48.995Z,348
2016-05-05T12:50:49.154Z,688
2016-05-05T12:51:48.984Z,692
2016-05-05T12:52:49.175Z,688
2016-05-05T12:53:49.162Z,688
2016-05-05T12:54:49.040Z,672
2016-05-05T12:55:49.168Z,652
2016-05-05T12:56:49.201Z,624
2016-05-05T12:57:49.063Z,640
2016-05-05T12:58:49.237Z,340
2016-05-05T12:59:49.210Z,516
2016-05-05T13:00:49.072Z,424
2016-05-05T13:01:49.231Z,616
2016-05-05T13:02:49.264Z,600
2016-05-05T13:03:49.283Z,620
2016-05-05T13:04:49.098Z,660
2016-05-05T13:05:49.288Z,672
2016-05-05T13:06:49.275Z,664
2016-05-05T13:07:49.278Z,632
2016-05-05T13:08:49.312Z,556
2016-05-05T13:09:50.455Z,628
2016-05-05T13:10:49.317Z,628
2016-05-05T13:11:49.305Z,584
2016-05-05T13:12:49.010Z,640
2016-05-05T13:13:49.185Z,668
2016-05-05T13:14:49.343Z,348
2016-05-05T13:15:49.174Z,324
2016-05-05T13:16:49.349Z,328
2016-05-05T13:17:49.368Z,632
2016-05-05T13:18:49.401Z,624
2016-05-05T13:19:49.248Z,628
2016-05-05T13:20:49.391Z,628
2016-05-05T13:21:49.379Z,640
2016-05-05T13:22:49.396Z,628
2016-05-05T13:23:49.430Z,612
2016-05-05T13:24:50.355Z,544
2016-05-05T13:25:49.451Z,608
2016-05-05T13:26:49.282Z,596
2016-05-05T13:27:49.457Z,604
2016-05-05T13:28:49.443Z,640
2016-05-05T13:29:49.462Z,524
2016-05-05T13:30:49.465Z,440
2016-05-05T13:31:49.483Z,336
2016-05-05T13:32:49.486Z,688
2016-05-05T13:33:49.504Z,432
2016-05-05T13:34:49.507Z,560
2016-05-05T13:35:49.791Z,668
2016-05-05T13:36:49.511Z,632
2016-05-05T13:38:10.265Z,612
2016-05-05T13:38:49.533Z,600
2016-05-05T13:39:50.661Z,584
2016-05-05T13:40:49.555Z,580
2016-05-05T13:41:49.572Z,584
2016-05-05T13:42:49.419Z,548
2016-05-05T13:43:49.594Z,524
2016-05-05T13:44:49.424Z,524
2016-05-05T13:45:49.583Z,528
2016-05-05T13:46:49.617Z,532
2016-05-05T13:47:49.620Z,540
2016-05-05T13:48:49.622Z,536
2016-05-05T13:49:49.624Z,532
2016-05-05T13:50:49.644Z,544
2016-05-05T13:51:49.646Z,316
2016-05-05T13:52:49.665Z,552
2016-05-05T13:53:49.527Z,560
2016-05-05T13:54:49.545Z,576
2016-05-05T13:55:49.673Z,576
2016-05-05T13:56:49.551Z,576
2016-05-05T13:57:49.537Z,568
2016-05-05T13:58:49.540Z,532
2016-05-05T13:59:49.574Z,536
2016-05-05T14:00:49.561Z,520
2016-05-05T14:01:49.548Z,492
2016-05-05T14:02:49.753Z,496
2016-05-05T14:03:49.600Z,488